Tiempo atmosférico en la estación meteorológica de Alcuescar, Cáceres (460 m.)



Fecha
DESCASC
Temp. máxima en grados centígrados (hora)
DESCASC
Temp. mínima en grados centígrados (hora)
DESCASC
Temp. media en grados centígrados
DESCASC
Racha de viento máxima en m/sg (hora)
DESCASC
Velocidad máxima media en intervalos de 10 minutos(hora)
DESCASC
Precipitaciones diarias en mm
DESCASC
Precipitaciones de 00:00 a 06:00 en mm
DESCASC
Precipitaciones de 06:00 a 12:00 en mm
DESCASC
Precipitaciones de 12:00 a 18:00 en mm
DESCASC
Precipitaciones de 18:00 a 24:00 en mm
DESCASC
04-03-2021 16.1 (14:30) 7.9 (08:00) 12 9.17 (06:00) 5.83 (06:00) 0 0 0 0 0
03-03-2021 18.7 (15:00) 8.8 (04:20) 13.8 10.28 (11:00) 6.94 (10:50) 0 0 0 0 0
02-03-2021 17.9 (16:50) 8.6 (05:10) 13.3 7.78 (10:50) 5.83 (10:40) 0 0 0 0 0
01-03-2021 15.2 (15:50) 7 (08:10) 11.1 10 (10:30) 6.67 (10:30) 0 0 0 0 0
28-02-2021 16.9 (15:10) 5.4 (00:00) 11.1 6.67 (09:50) 5 (09:50) 0 0 0 0 0
27-02-2021 17.2 (14:10) 6 (00:00) 11.6 7.22 (11:40) 4.17 (15:50) 0 0 0 0 0
26-02-2021 15.7 (14:20) 8.6 (00:00) 12.2 7.5 (13:20) 4.44 (13:20) 0 0 0 0 0
25-02-2021 13.6 (13:40) 7.7 (00:00) 10.7 8.61 (14:00) 5.83 (12:50) 0 0 0 0 0
24-02-2021 18 (16:50) 5.1 (00:00) 11.5 13.61 (13:10) 9.44 (13:20) 0 0 0 0 0
23-02-2021 15.7 (16:30) 4.3 (00:00) 10 11.39 (15:30) 6.94 (15:30) 0.2 0 0.2 0 0
22-02-2021 14 (17:20) 1.7 (00:00) 7.9 7.22 (15:20) 3.89 (15:40) 0.2 0 0.2 0 0
21-02-2021 12.4 (06:00) 5.2 (00:00) 8.8 11.94 (05:20) 7.5 (06:30) 7.6 0 6.8 0.8 0
20-02-2021 14.5 (15:50) 6.8 (00:00) 10.7 12.22 (12:30) 7.78 (12:30) 0 0 0 0 0
19-02-2021 17 (14:30) 6.3 (00:00) 11.7 7.78 (13:40) 5.28 (13:40) 0 0 0 0 0
18-02-2021 16.7 (15:20) 7.1 (00:00) 11.9 8.06 (16:00) 4.44 (00:10) 0 0 0 0 0
17-02-2021 18.2 (15:10) 7 (00:00) 12.6 6.94 (12:20) 5 (12:20) 0 0 0 0 0
16-02-2021 17.3 (14:10) 7.4 (00:00) 12.3 10 (05:00) 7.22 (00:40) 0 0 0 0 0
15-02-2021 17.6 (16:10) 7.1 (00:00) 12.4 11.39 (17:00) 7.78 (16:40) 0 0 0 0 0
14-02-2021 17.7 (16:10) 6.7 (00:00) 12.2 10 (11:50) 7.22 (11:50) 0 0 0 0 0
13-02-2021 16.7 (17:20) 7 (00:00) 11.9 4.17 (14:40) 2.5 (08:50) 0 0 0 0 0
12-02-2021 15.3 (16:10) 8.3 (00:00) 11.8 10.28 (02:20) 6.11 (02:30) 3 2.8 0.2 0 0
11-02-2021 13.6 (16:40) 11 (00:00) 12.3 7.22 (23:59) 4.44 (22:20) 2.8 0.8 0.2 1.2 0.6
10-02-2021 14.5 (15:30) 9.2 (00:00) 11.8 16.11 (00:40) 8.89 (00:30) 2.2 0.2 2 0 0
09-02-2021 10.5 (14:10) 7.9 (00:00) 9.2 17.22 (13:00) 10.56 (13:20) 12.2 0.2 5.2 6.8 0
08-02-2021 12.1 (15:30) 7.6 (00:00) 9.9 15.83 (03:50) 8.89 (03:50) 11.2 10.4 0 0.8 0
07-02-2021 9.8 (15:10) 3.4 (00:00) 6.6 10.56 (22:50) 6.67 (22:50) 1.6 0 0.2 0 1.4
06-02-2021 10 (14:10) 7.7 (00:00) 8.8 6.94 (06:20) 4.44 (00:30) 2.4 0.6 0.8 1 0
05-02-2021 10.9 (11:50) 8 (00:00) 9.4 7.5 (04:30) 4.72 (04:20) 16.4 3 1.2 7.8 4.4
04-02-2021 11 (12:20) 8.2 (00:00) 9.6 8.06 (12:40) 5 (10:30) 12.4 1.2 3.4 7.6 0.2

Gráficas

Temp. máximas Temp. mínimas Temp. medias Precipitaciones Rachas de viento máximas Velocidades máximas media en intervalos de 10 minutos

Datos horarios

Fecha y hora oficial Temperatura (ºC) Velocidad del viento (km/h) Dirección del viento Racha (km/h) Dirección de racha Precipitación (mm) Presión (hPa) Tendencia (hPa) Humedad (%)
2021-03-05 23:00:00 9.2 5 Oeste 9 Oeste 0 -- -- 90
2021-03-05 22:00:00 10.1 4 Oeste 9 Norte 0 -- -- 85
2021-03-05 21:00:00 11.7 4 Norte 12 Norte 0 -- -- 75
2021-03-05 20:00:00 12.3 6 Norte 9 Norte 0 -- -- 74
2021-03-05 19:00:00 13.2 3 Nordeste 8 Nordeste 0 -- -- 70
2021-03-05 18:00:00 13.8 5 Este 15 Este 0 -- -- 67
2021-03-05 17:00:00 14.1 7 Este 18 Sudeste 0 -- -- 67
2021-03-05 16:00:00 13.6 10 Sudeste 15 Sudeste 0 -- -- 68
2021-03-05 15:00:00 13.4 10 Sudeste 17 Sudeste 0 -- -- 70
2021-03-05 14:00:00 13.1 12 Sudeste 24 Sudeste 0 -- -- 69
2021-03-05 13:00:00 12.8 14 Este 27 Este 0 -- -- 69
2021-03-05 12:00:00 11.8 17 Este 27 Este 0 -- -- 72
2021-03-05 11:00:00 11.3 15 Este 24 Este 0 -- -- 75
2021-03-05 10:00:00 9.9 12 Sudeste 19 Sudeste 0 -- -- 83
2021-03-05 09:00:00 9.1 6 Sudeste 16 Este 0 -- -- 88
2021-03-05 08:00:00 9.1 10 Sudeste 27 Sudeste 0 -- -- 87
2021-03-05 07:00:00 8.6 10 Este 18 Sudeste 0 -- -- 89
2021-03-05 06:00:00 9.5 15 Sudeste 27 Este 0 -- -- 84
2021-03-05 05:00:00 9.4 15 Sudeste 25 Este 0 -- -- 87
2021-03-05 04:00:00 9.2 10 Sudeste 15 Este 0 -- -- 89
2021-03-05 03:00:00 10 9 Este 18 Este 0 -- -- 83
2021-03-05 02:00:00 9.9 4 Sudeste 9 Este 0 -- -- 86
2021-03-05 01:00:00 10.4 8 Este 12 Este 0 -- -- 84
2021-03-05 00:00:00 10.9 7 Este 10 Este 0 -- -- 83
2021-03-04 23:00:00 11.1 6 Este 8 Sudeste 0 -- -- 83
2021-03-04 22:00:00 10.7 5 Este 9 Sur 0 -- -- 86
2021-03-04 21:00:00 11.4 3 Sudeste 5 Este 0 -- -- 83
2021-03-04 20:00:00 12.2 3 Sudeste 10 Este 0 -- -- 79
2021-03-04 19:00:00 13.4 5 Este 19 Este 0 -- -- 73
2021-03-04 18:00:00 14.5 13 Este 23 Sudeste 0 -- -- 69
2021-03-04 17:00:00 14.7 15 Sudeste 25 Sudeste 0 -- -- 69
2021-03-04 16:00:00 14.9 16 Sudeste 30 Este 0 -- -- 67
2021-03-04 15:00:00 14.5 14 Este 27 Este 0 -- -- 68
2021-03-04 14:00:00 14.8 16 Sudeste 30 Sudeste 0 -- -- 71
2021-03-04 13:00:00 13.7 15 Este 27 Este 0 -- -- 76
2021-03-04 12:00:00 12.2 13 Sudeste 28 Este 0 -- -- 83
2021-03-04 11:00:00 10.6 12 Sudeste 28 Este 0 -- -- 86
2021-03-04 10:00:00 9.4 12 Sudeste 20 Sudeste 0 -- -- 88
2021-03-04 09:00:00 8.8 8 Sudeste 17 Sudeste 0 -- -- 91
2021-03-04 08:00:00 7.9 14 Sudeste 28 Sudeste 0 -- -- 92
2021-03-04 07:00:00 8.5 21 Sudeste 29 Sudeste 0 -- -- 90
2021-03-04 06:00:00 9.3 21 Sudeste 33 Sudeste 0 -- -- 87
2021-03-04 05:00:00 10 18 Sudeste 27 Sudeste 0 -- -- 86
2021-03-04 04:00:00 9.9 15 Sudeste 22 Este 0 -- -- 87
2021-03-04 03:00:00 10.2 11 Este 16 Este 0 -- -- 85
2021-03-04 02:00:00 10.7 12 Este 18 Sudeste 0 -- -- 84
2021-03-04 01:00:00 11.3 10 Sudeste 15 Sudeste 0 -- -- 81
2021-03-04 00:00:00 12 10 Sudeste 14 Este 0 -- -- 76
2021-03-03 23:00:00 12.3 8 Sudeste 11 Sudeste 0 -- -- 74
2021-03-03 22:00:00 13.2 5 Este 9 Este 0 -- -- 72
2021-03-03 21:00:00 14.2 9 Este 14 Este 0 -- -- 68
2021-03-03 20:00:00 14 10 Nordeste 13 Nordeste 0 -- -- 73
2021-03-03 19:00:00 15.8 6 Este 18 Sudeste 0 -- -- 67
2021-03-03 18:00:00 17.6 9 Sudeste 20 Sudeste 0 -- -- 62
2021-03-03 17:00:00 18.1 12 Este 27 Sudeste 0 -- -- 59
2021-03-03 16:00:00 18.5 15 Sudeste 27 Sudeste 0 -- -- 60
2021-03-03 15:00:00 18.7 14 Sudeste 24 Sudeste 0 -- -- 62
2021-03-03 14:00:00 17.8 14 Sudeste 31 Sudeste 0 -- -- 63
2021-03-03 13:00:00 16.5 17 Sudeste 30 Este 0 -- -- 67
2021-03-03 12:00:00 14.7 22 Sudeste 34 Sudeste 0 -- -- 73
2021-03-03 11:00:00 13.3 25 Sudeste 37 Sudeste 0 -- -- 76
2021-03-03 10:00:00 12.6 15 Sudeste 24 Sudeste 0 -- -- 77
2021-03-03 09:00:00 10 11 Sudeste 17 Sudeste 0 -- -- 85
2021-03-03 08:00:00 9.1 10 Sudeste 17 Sudeste 0 -- -- 88
2021-03-03 07:00:00 9.1 12 Sudeste 18 Sudeste 0 -- -- 88
2021-03-03 06:00:00 9 5 Sudeste 9 Sudeste 0 -- -- 87
2021-03-03 05:00:00 9.2 3 Este 10 Norte 0 -- -- 85
2021-03-03 04:00:00 9.2 6 Nordeste 10 Sudeste 0 -- -- 83
2021-03-03 03:00:00 9.8 9 Sudeste 15 Sudeste 0 -- -- 82
2021-03-03 02:00:00 10.2 12 Este 18 Sudeste 0 -- -- 80
2021-03-03 01:00:00 10.3 11 Este 19 Este 0 -- -- 80
2021-03-03 00:00:00 11.3 12 Este 24 Este 0 -- -- 78
2021-03-02 23:00:00 10.4 8 Sudeste 13 Este 0 -- -- 87
2021-03-02 22:00:00 11.6 4 Nordeste 13 Nordeste 0 -- -- 82
2021-03-02 21:00:00 12 8 Nordeste 13 Nordeste 0 -- -- 82
2021-03-02 20:00:00 12.7 8 Nordeste 13 Nordeste 0 -- -- 81
2021-03-02 19:00:00 14.5 6 Nordeste 18 Nordeste 0 -- -- 74
2021-03-02 18:00:00 17.2 4 Sudeste 12 Sudeste 0 -- -- 62
2021-03-02 17:00:00 17.9 4 Nordeste 18 Este 0 -- -- 59
2021-03-02 16:00:00 16.9 11 Sudeste 22 Sudeste 0 -- -- 66
2021-03-02 15:00:00 16.6 10 Sudeste 21 Sudeste 0 -- -- 66
2021-03-02 14:00:00 15.7 10 Sudeste 21 Este 0 -- -- 71
2021-03-02 13:00:00 15.6 12 Sudeste 23 Este 0 -- -- 70
2021-03-02 12:00:00 14.6 14 Sudeste 26 Sudeste 0 -- -- 72
2021-03-02 11:00:00 12.8 18 Sudeste 28 Sudeste 0 -- -- 77
2021-03-02 10:00:00 10.6 17 Sudeste 24 Sudeste 0 -- -- 85
2021-03-02 09:00:00 9.4 16 Sudeste 24 Sudeste 0 -- -- 87
2021-03-02 08:00:00 9.2 17 Sudeste 27 Sudeste 0 -- -- 87
2021-03-02 07:00:00 9 16 Sudeste 23 Sudeste 0 -- -- 87
2021-03-02 06:00:00 8.8 16 Sudeste 22 Sudeste 0 -- -- 89
2021-03-02 05:00:00 8.7 15 Sudeste 24 Sudeste 0 -- -- 89
2021-03-02 04:00:00 8.8 15 Sudeste 21 Sudeste 0 -- -- 89
2021-03-02 03:00:00 9.1 14 Sudeste 21 Sudeste 0 -- -- 88
2021-03-02 02:00:00 9.5 13 Sudeste 19 Sudeste 0 -- -- 87
2021-03-02 01:00:00 9.9 13 Sudeste 20 Sudeste 0 -- -- 85
2021-03-02 00:00:00 9.9 10 Sudeste 16 Sudeste 0 -- -- 83
2021-03-01 23:00:00 9.5 2 Sur 12 Nordeste 0 -- -- 85
2021-03-01 22:00:00 9.4 9 Nordeste 14 Nordeste 0 -- -- 86
2021-03-01 21:00:00 9.4 4 Nordeste 8 Este 0 -- -- 86
2021-03-01 20:00:00 11.2 3 Sudeste 9 Sudeste 0 -- -- 77
2021-03-01 19:00:00 12.7 6 Sudeste 18 Este 0 -- -- 76
2021-03-01 18:00:00 13 10 Sudeste 17 Sudeste 0 -- -- 75
2021-03-01 17:00:00 13.5 10 Este 18 Sudeste 0 -- -- 72
2021-03-01 16:00:00 14.8 12 Sudeste 23 Este 0 -- -- 68
2021-03-01 15:00:00 15 15 Sudeste 28 Este 0 -- -- 69
2021-03-01 14:00:00 13.5 17 Sudeste 32 Sudeste 0 -- -- 70
2021-03-01 13:00:00 13.3 23 Sudeste 32 Sudeste 0 -- -- 71
2021-03-01 12:00:00 12.6 22 Sudeste 34 Sudeste 0 -- -- 69
2021-03-01 11:00:00 11.9 19 Sudeste 36 Sudeste 0 -- -- 72
2021-03-01 10:00:00 10.4 17 Sudeste 29 Sudeste 0 -- -- 77
2021-03-01 09:00:00 7.6 9 Sudeste 14 Sudeste 0 -- -- 89
2021-03-01 08:00:00 7.1 9 Sudeste 18 Sudeste 0 -- -- 87
2021-03-01 07:00:00 8 13 Sudeste 21 Este 0 -- -- 83
2021-03-01 06:00:00 9.3 10 Sudeste 25 Sudeste 0 -- -- 78
2021-03-01 05:00:00 9.7 15 Sudeste 28 Sudeste 0 -- -- 78
2021-03-01 04:00:00 10.1 14 Sudeste 27 Sudeste 0 -- -- 78
2021-03-01 03:00:00 9.7 9 Sudeste 14 Sudeste 0 -- -- 85
2021-03-01 02:00:00 10.8 8 Sudeste 11 Sudeste 0 -- -- 79
2021-03-01 01:00:00 10 2 Oeste 4 Norte 0 -- -- 81
2021-03-01 00:00:00 10.5 0 Calma 4 Nordeste 0 -- -- 77
2021-02-28 23:00:00 10.8 3 Nordeste 5 Nordeste 0 -- -- 77
2021-02-28 22:00:00 11.2 4 Sudeste -- -- 0 -- -- 77
2021-02-28 21:00:00 12.2 5 Este 9 Este 0 -- -- 74
2021-02-28 20:00:00 12.5 6 Sudeste 11 Sudeste 0 -- -- 75
2021-02-28 19:00:00 14.3 7 Sudeste 14 Este 0 -- -- 69
2021-02-28 18:00:00 16 9 Sudeste 19 Sudeste 0 -- -- 62
2021-02-28 17:00:00 16.8 9 Sudeste 19 Este 0 -- -- 63
2021-02-28 16:00:00 16.6 10 Sudeste 20 Sudeste 0 -- -- 63
2021-02-28 15:00:00 16.5 7 Sudeste 24 Este 0 -- -- 65
2021-02-28 14:00:00 15.4 13 Este 22 Este 0 -- -- 65
2021-02-28 13:00:00 15.1 9 Sudeste 19 Este 0 -- -- 68
2021-02-28 12:00:00 13.7 12 Sudeste 23 Sudeste 0 -- -- 71
2021-02-28 11:00:00 11.8 17 Sudeste 22 Sudeste 0 -- -- 77
2021-02-28 10:00:00 9.2 17 Sudeste 24 Sudeste 0 -- -- 79
2021-02-28 09:00:00 7.6 13 Sudeste 19 Sudeste 0 -- -- 83
2021-02-28 08:00:00 5.5 6 Sudeste 12 Sudeste 0 -- -- 88
2021-02-28 07:00:00 6.3 8 Sudeste 10 Sudeste 0 -- -- 83
2021-02-28 06:00:00 6.1 8 Sudoeste 12 Nordeste 0 -- -- 79
2021-02-28 05:00:00 7.5 3 Este 6 Sur 0 -- -- 71
2021-02-28 04:00:00 8.2 4 Nordeste 6 Sudoeste 0 -- -- 67
2021-02-28 03:00:00 9.9 3 Oeste 6 Norte 0 -- -- 60
2021-02-28 02:00:00 10.6 5 Norte 6 Norte 0 -- -- 58
2021-02-28 01:00:00 10.5 3 Nordeste 6 Nordeste 0 -- -- 59
2021-02-28 00:00:00 10.3 0 Calma 5 Noroeste 0 -- -- 61
2021-02-27 23:00:00 11 0 Calma 4 Sudeste 0 -- -- 59
2021-02-27 22:00:00 10.1 3 Sudeste 9 Norte 0 -- -- 64
2021-02-27 21:00:00 11.3 0 Calma 8 Este 0 -- -- 63
2021-02-27 20:00:00 11.8 5 Sudeste 11 Sudeste 0 -- -- 61
2021-02-27 19:00:00 12.9 8 Sudeste 11 Sur 0 -- -- 61
2021-02-27 18:00:00 14.4 9 Sudeste 17 Sudeste 0 -- -- 56
2021-02-27 17:00:00 15.6 12 Sudeste 22 Sudeste 0 -- -- 47
2021-02-27 16:00:00 16.7 14 Sudeste 24 Este 0 -- -- 42
2021-02-27 15:00:00 16.4 5 Sur 14 Sudeste 0 -- -- 47
2021-02-27 14:00:00 16.8 9 Sudeste 17 Sudeste 0 -- -- 51
2021-02-27 13:00:00 15.7 9 Sudeste 20 Sudeste 0 -- -- 51
2021-02-27 12:00:00 13.9 11 Sudeste 26 Sudeste 0 -- -- 54
2021-02-27 11:00:00 12.9 15 Sudeste 23 Sudeste 0 -- -- 63
2021-02-27 10:00:00 10.7 9 Sudeste 19 Sudeste 0 -- -- 69
2021-02-27 09:00:00 9.1 11 Sudeste 19 Sudeste 0 -- -- 73
2021-02-27 08:00:00 8.6 13 Sudeste 19 Sudeste 0 -- -- 73
2021-02-27 07:00:00 8.2 10 Este 15 Sudeste 0 -- -- 78
2021-02-27 06:00:00 6.8 4 Sudeste 9 Sudeste 0 -- -- 97
2021-02-27 05:00:00 6.4 3 Norte 6 Oeste 0 -- -- 98
2021-02-27 04:00:00 6.8 4 Oeste 9 Oeste 0 -- -- 98
2021-02-27 03:00:00 6.9 5 Oeste 10 Oeste 0 -- -- 98
2021-02-27 02:00:00 7.5 5 Oeste 8 Oeste 0 -- -- 97
2021-02-27 01:00:00 8.1 5 Oeste 9 Oeste 0 -- -- 95
2021-02-27 00:00:00 8.6 7 Oeste 12 Oeste 0 -- -- 94
2021-02-26 23:00:00 9.3 6 Oeste 10 Oeste 0 -- -- 93
2021-02-26 22:00:00 9.8 6 Oeste 13 Norte 0 -- -- 92
2021-02-26 21:00:00 11.7 9 Norte 16 Norte 0 -- -- 84
2021-02-26 20:00:00 12 7 Norte 13 Norte 0 -- -- 83
2021-02-26 19:00:00 13.6 8 Norte 12 Norte 0 -- -- 78
2021-02-26 18:00:00 14.6 8 Norte 16 Norte 0 -- -- 73
2021-02-26 17:00:00 15.2 8 Norte 15 Norte 0 -- -- 70
2021-02-26 16:00:00 15.3 6 Este 13 Nordeste 0 -- -- 68
2021-02-26 15:00:00 15.5 6 Norte 12 Nordeste 0 -- -- 67
2021-02-26 14:00:00 15.3 6 Sudeste 27 Sudeste 0 -- -- 66
2021-02-26 13:00:00 14.4 10 Sudeste 24 Sudeste 0 -- -- 67
2021-02-26 12:00:00 13.2 4 Sudeste 17 Sudeste 0 -- -- 76
2021-02-26 11:00:00 12.2 15 Sudeste 22 Sudeste 0 -- -- 77
2021-02-26 10:00:00 10.8 3 Sudeste 15 Sudeste 0 -- -- 83
2021-02-26 09:00:00 9.8 11 Sudeste 21 Este 0 -- -- 87
2021-02-26 08:00:00 9 14 Sudeste 20 Sudeste 0 -- -- 88
2021-02-26 07:00:00 9.3 12 Sudeste 17 Este 0 -- -- 86
2021-02-26 06:00:00 9.6 8 Sudeste 19 Este 0 -- -- 84
2021-02-26 05:00:00 9.5 6 Sudeste 7 Sudeste 0 -- -- 85
2021-02-26 04:00:00 8.7 2 Norte 6 Noroeste 0 -- -- 91
2021-02-26 03:00:00 10.2 0 Calma 9 Nordeste 0 -- -- 81
2021-02-26 02:00:00 11 5 Este 7 Este 0 -- -- 78
2021-02-26 01:00:00 10.5 0 Calma 3 Nordeste 0 -- -- 79
2021-02-26 00:00:00 10.4 0 Calma 7 Este 0 -- -- 79
2021-02-25 23:00:00 10.7 5 Este 9 Este 0 -- -- 78
2021-02-25 22:00:00 10.7 0 Calma 14 Este 0 -- -- 77
2021-02-25 21:00:00 11.8 9 Este 17 Este 0 -- -- 71
2021-02-25 20:00:00 11.5 7 Este 12 Este 0 -- -- 77
2021-02-25 19:00:00 12.2 9 Este 21 Este 0 -- -- 75
2021-02-25 18:00:00 12.4 12 Sudeste 20 Sudeste 0 -- -- 77
2021-02-25 17:00:00 12.3 12 Sudeste 20 Sudeste 0 -- -- 78
2021-02-25 16:00:00 12.3 15 Sudeste 24 Sudeste 0 -- -- 76
2021-02-25 15:00:00 13.3 17 Sudeste 27 Sudeste 0 -- -- 73
2021-02-25 14:00:00 13.2 18 Sudeste 31 Sudeste 0 -- -- 73
2021-02-25 13:00:00 13.3 19 Sudeste 28 Sudeste 0 -- -- 74
2021-02-25 12:00:00 12.6 15 Sudeste 29 Sudeste 0 -- -- 76
2021-02-25 11:00:00 10.4 15 Sudeste 24 Sudeste 0 -- -- 85
2021-02-25 10:00:00 9 13 Sudeste 22 Sudeste 0 -- -- 91
2021-02-25 09:00:00 8.2 16 Sudeste 24 Sudeste 0 -- -- 92
2021-02-25 08:00:00 8.2 14 Sudeste 21 Sudeste 0 -- -- 92
2021-02-25 07:00:00 8.5 13 Sudeste 21 Sudeste 0 -- -- 92
2021-02-25 06:00:00 8 13 Sudeste 18 Sudeste 0 -- -- 93
2021-02-25 05:00:00 7.7 10 Sudeste 14 Sudeste 0 -- -- 93
2021-02-25 04:00:00 8.3 12 Sudeste 21 Sudeste 0 -- -- 90
2021-02-25 03:00:00 8 12 Sudeste 18 Sudeste 0 -- -- 92
2021-02-25 02:00:00 9.2 10 Sudeste 13 Sudeste 0 -- -- 90
2021-02-25 01:00:00 9.7 10 Sudeste 13 Sudeste 0 -- -- 89
2021-02-25 00:00:00 10.4 11 Sudeste 18 Sudeste 0 -- -- 85
2021-02-24 23:00:00 10.9 11 Sudeste 21 Sudeste 0 -- -- 82
2021-02-24 22:00:00 11 8 Sudeste 10 Sudeste 0 -- -- 80
2021-02-24 21:00:00 11.5 7 Sudeste 12 Sudeste 0 -- -- 78
2021-02-24 20:00:00 12.8 7 Sudeste 12 Sudeste 0 -- -- 73
2021-02-24 19:00:00 14.3 7 Sudeste 24 Sudeste 0 -- -- 68
2021-02-24 18:00:00 16.6 15 Sur 34 Sudeste 0 -- -- 59
2021-02-24 17:00:00 18 17 Sudeste 32 Sudeste 0 -- -- 54
2021-02-24 16:00:00 17.5 18 Sudeste 43 Sudeste 0 -- -- 60
2021-02-24 15:00:00 16.9 22 Sudeste 45 Sudeste 0 -- -- 59
2021-02-24 14:00:00 15.6 26 Sudeste 49 Este 0 -- -- 64
2021-02-24 13:00:00 14.3 29 Sudeste 46 Este 0 -- -- 66
2021-02-24 12:00:00 12.8 27 Sudeste 46 Sudeste 0 -- -- 67
2021-02-24 11:00:00 11.3 29 Sudeste 41 Sudeste 0 -- -- 73
2021-02-24 10:00:00 10.3 20 Sudeste 34 Sudeste 0 -- -- 76
2021-02-24 09:00:00 6.8 11 Sudeste 17 Sudeste 0 -- -- 88
2021-02-24 08:00:00 5.2 9 Sudeste 15 Sudeste 0 -- -- 91
2021-02-24 07:00:00 5.7 11 Sudeste 17 Sudeste 0 -- -- 90
2021-02-24 06:00:00 5.7 11 Sudeste 17 Sudeste 0 -- -- 90
2021-02-24 05:00:00 6.4 14 Sudeste 23 Sudeste 0 -- -- 87
2021-02-24 04:00:00 6.7 12 Sudeste 21 Sudeste 0 -- -- 85
2021-02-24 03:00:00 7.3 10 Sudeste 13 Sudeste 0 -- -- 83
2021-02-24 02:00:00 7.7 9 Sudeste 14 Sudeste 0 -- -- 81
2021-02-24 01:00:00 7.8 9 Sudeste 12 Sudeste 0 -- -- 79
2021-02-24 00:00:00 8.1 8 Sudeste 13 Sudeste 0 -- -- 77
2021-02-23 23:00:00 9.7 9 Sudeste 12 Sudeste 0 -- -- 70
2021-02-23 22:00:00 10.4 0 Calma 8 Este 0 -- -- 66
2021-02-23 21:00:00 10.9 5 Este 8 Este 0 -- -- 65
2021-02-23 20:00:00 11.6 6 Este 10 Este 0 -- -- 63
2021-02-23 19:00:00 13.1 9 Sudeste 26 Sudeste 0 -- -- 59
2021-02-23 18:00:00 14.8 18 Sudeste 30 Sudeste 0 -- -- 53
2021-02-23 17:00:00 15.4 17 Este 31 Sudeste 0 -- -- 50
2021-02-23 16:00:00 15 22 Sudeste 41 Este 0 -- -- 55
2021-02-23 15:00:00 14.7 21 Sudeste 36 Sudeste 0 -- -- 55
2021-02-23 14:00:00 13.8 21 Sudeste 33 Sudeste 0 -- -- 59
2021-02-23 13:00:00 12.9 20 Sudeste 32 Sudeste 0 -- -- 59
2021-02-23 12:00:00 11.6 16 Sudeste 25 Sudeste 0.2 -- -- 70
2021-02-23 11:00:00 -- -- -- -- -- -- -- -- --
2021-02-23 10:00:00 8.9 15 Sudeste 21 Sudeste 0 -- -- 76
2021-02-23 09:00:00 5.8 12 Sudeste 18 Sudeste 0 -- -- 88
2021-02-23 08:00:00 4.4 14 Sudeste 22 Sudeste 0 -- -- 91
2021-02-23 07:00:00 4.6 13 Sudeste 19 Sudeste 0 -- -- 91
2021-02-23 06:00:00 4.8 12 Sudeste 16 Sudeste 0 -- -- 90
2021-02-23 05:00:00 5.1 9 Sudeste 15 Sudeste 0 -- -- 88
2021-02-23 04:00:00 5.7 12 Sudeste 16 Sudeste 0 -- -- 87
2021-02-23 03:00:00 6.3 12 Sudeste 18 Sudeste 0 -- -- 85
2021-02-23 02:00:00 6.7 9 Sudeste 12 Sudeste 0 -- -- 84
2021-02-23 01:00:00 7.1 9 Sudeste 11 Sudeste 0 -- -- 82
2021-02-23 00:00:00 7.3 6 Sudeste 10 Este 0 -- -- 82
2021-02-22 23:00:00 7.5 5 Sudeste 9 Sudeste 0 -- -- 81
2021-02-22 22:00:00 8.1 5 Sudeste 8 Sudeste 0 -- -- 78
2021-02-22 21:00:00 8.9 4 Sudoeste 8 Sudoeste 0 -- -- 74
2021-02-22 20:00:00 9.3 5 Sur 9 Sudoeste 0 -- -- 74
2021-02-22 19:00:00 11.3 5 Sudoeste 15 Sudoeste 0 -- -- 66
2021-02-22 18:00:00 12.4 9 Oeste 23 Oeste 0 -- -- 63
2021-02-22 17:00:00 13.6 8 Noroeste 21 Oeste 0 -- -- 54
2021-02-22 16:00:00 13.4 14 Oeste 26 Sudoeste 0 -- -- 56
2021-02-22 15:00:00 13.4 13 Oeste 22 Oeste 0 -- -- 58
2021-02-22 14:00:00 12.2 12 Noroeste 22 Oeste 0 -- -- 63
2021-02-22 13:00:00 11.1 11 Oeste 21 Oeste 0 -- -- 68
2021-02-22 12:00:00 9.8 14 Noroeste 22 Oeste 0.2 -- -- 70
2021-02-22 11:00:00 8.6 9 Noroeste 15 Oeste 0 -- -- 78
2021-02-22 10:00:00 6 5 Noroeste 9 Noroeste 0 -- -- 94
2021-02-22 09:00:00 3 6 Noroeste 9 Oeste 0 -- -- 100
2021-02-22 08:00:00 1.9 7 Noroeste 9 Oeste 0 -- -- 99
2021-02-22 07:00:00 2 5 Noroeste 8 Noroeste 0 -- -- 97
2021-02-22 06:00:00 2.4 6 Noroeste 8 Noroeste 0 -- -- 97
2021-02-22 05:00:00 3 6 Noroeste 16 Oeste 0 -- -- 95
2021-02-22 04:00:00 3 8 Oeste 14 Oeste 0 -- -- 95
2021-02-22 03:00:00 3.9 6 Noroeste 16 Oeste 0 -- -- 91
2021-02-22 02:00:00 5 12 Noroeste 23 Noroeste 0 -- -- 88
2021-02-22 01:00:00 4.9 11 Oeste 20 Oeste 0 -- -- 88
2021-02-22 00:00:00 5.2 11 Oeste 19 Oeste 0 -- -- 86
2021-02-21 23:00:00 6.5 13 Oeste 25 Noroeste 0 -- -- 81
2021-02-21 22:00:00 7.2 14 Oeste 30 Noroeste 0 -- -- 80
2021-02-21 21:00:00 8.3 18 Oeste 32 Oeste 0 -- -- 78
2021-02-21 20:00:00 7.7 10 Oeste 17 Oeste 0 -- -- 82
2021-02-21 19:00:00 8.4 10 Noroeste 22 Noroeste 0 -- -- 83
2021-02-21 18:00:00 8.9 15 Noroeste 37 Noroeste 0 -- -- 77
2021-02-21 17:00:00 9 19 Noroeste 33 Noroeste 0 -- -- 79
2021-02-21 16:00:00 8 20 Noroeste 37 Noroeste 0 -- -- 89
2021-02-21 15:00:00 8.2 15 Noroeste 24 Noroeste 0 -- -- 92
2021-02-21 14:00:00 8.6 8 Norte 16 Norte 0 -- -- 93
2021-02-21 13:00:00 7.3 9 Noroeste 15 Norte 0.8 -- -- 98
2021-02-21 12:00:00 6.8 11 Noroeste 20 Noroeste 1.6 -- -- 98
2021-02-21 11:00:00 7.4 6 Oeste 21 Noroeste 1.6 -- -- 98
2021-02-21 10:00:00 7.5 10 Oeste 20 Oeste 1 -- -- 97
2021-02-21 09:00:00 7.9 10 Oeste 22 Oeste 0.6 -- -- 97
2021-02-21 08:00:00 8.6 10 Sudoeste 20 Sudoeste 1.6 -- -- 96
2021-02-21 07:00:00 9.4 14 Sudoeste 43 Sudeste 0.4 -- -- 93
2021-02-21 06:00:00 12.4 22 Sur 43 Sudeste 0 -- -- 70
2021-02-21 05:00:00 11.6 24 Sudeste 40 Sudeste 0 -- -- 67
2021-02-21 04:00:00 10.9 17 Sudeste 25 Sudeste 0 -- -- 67
2021-02-21 03:00:00 10.6 16 Sudeste 27 Sudeste 0 -- -- 71
2021-02-21 02:00:00 10.6 14 Sudeste 29 Sudeste 0 -- -- 73
2021-02-21 01:00:00 11.5 16 Sudeste 29 Sudeste 0 -- -- 71
2021-02-21 00:00:00 11.5 17 Sudeste 27 Sudeste 0 -- -- 70
2021-02-20 23:00:00 11.4 17 Sudeste 32 Sudeste 0 -- -- 66
2021-02-20 22:00:00 12.6 21 Sudeste 32 Sudeste 0 -- -- 54
2021-02-20 21:00:00 12.1 16 Sudeste 28 Sudeste 0 -- -- 59
2021-02-20 20:00:00 12.1 17 Sudeste 30 Sur 0 -- -- 63
2021-02-20 19:00:00 13 17 Sudeste 30 Sudeste 0 -- -- 59
2021-02-20 18:00:00 13.2 18 Sudeste 28 Sudeste 0 -- -- 59
2021-02-20 17:00:00 13.7 22 Sudeste 41 Sudeste 0 -- -- 57
2021-02-20 16:00:00 14.5 25 Sudeste 41 Sudeste 0 -- -- 54
2021-02-20 15:00:00 14.3 25 Sudeste 38 Sudeste 0 -- -- 59
2021-02-20 14:00:00 13.9 22 Sudeste 35 Sudeste 0 -- -- 65
2021-02-20 13:00:00 12.8 24 Sudeste 44 Sudeste 0 -- -- 78
2021-02-20 12:00:00 11.3 27 Sudeste 43 Sudeste 0 -- -- 88
2021-02-20 11:00:00 10.3 18 Sudeste 32 Sudeste 0 -- -- 92
2021-02-20 10:00:00 8.4 18 Sudeste 28 Sudeste 0 -- -- 98
2021-02-20 09:00:00 7.5 13 Sudeste 24 Sudeste 0 -- -- 99
2021-02-20 08:00:00 7.3 16 Sudeste 24 Sudeste 0 -- -- 99
2021-02-20 07:00:00 6.8 14 Sudeste 25 Sudeste 0 -- -- 99
2021-02-20 06:00:00 7.1 15 Sudeste 23 Sudeste 0 -- -- 99
2021-02-20 05:00:00 7.2 18 Sudeste 28 Sudeste 0 -- -- 98
2021-02-20 04:00:00 7.3 14 Sudeste 26 Sudeste 0 -- -- 97
2021-02-20 03:00:00 7.7 16 Sudeste 27 Este 0 -- -- 96
2021-02-20 02:00:00 7.9 15 Sudeste 23 Sudeste 0 -- -- 95
2021-02-20 01:00:00 7.9 12 Sudeste 19 Sudeste 0 -- -- 96
2021-02-20 00:00:00 8.3 7 Sudeste 18 Sudeste 0 -- -- 94
2021-02-19 23:00:00 9.4 9 Sudeste 17 Sudeste 0 -- -- 92
2021-02-19 22:00:00 10 9 Sudeste 17 Sudeste 0 -- -- 89
2021-02-19 21:00:00 10.4 6 Sudeste 14 Sudeste 0 -- -- 88
2021-02-19 20:00:00 11.3 6 Sudeste 8 Este 0 -- -- 83
2021-02-19 19:00:00 13 5 Sudoeste 17 Oeste 0 -- -- 76
2021-02-19 18:00:00 14.7 11 Oeste 19 Sudoeste 0 -- -- 68
2021-02-19 17:00:00 14.6 9 Sudoeste 19 Oeste 0 -- -- 68
2021-02-19 16:00:00 15.9 10 Oeste 23 Sudoeste 0 -- -- 62
2021-02-19 15:00:00 16.8 13 Sur 27 Sur 0 -- -- 57
2021-02-19 14:00:00 16.5 17 Sur 28 Sudeste 0 -- -- 61
2021-02-19 13:00:00 14.2 18 Sudeste 27 Sudeste 0 -- -- 72
2021-02-19 12:00:00 13.3 12 Sudeste 19 Este 0 -- -- 75
2021-02-19 11:00:00 11.6 14 Sudeste 24 Sudeste 0 -- -- 80
2021-02-19 10:00:00 9.8 16 Sudeste 24 Sudeste 0 -- -- 86
2021-02-19 09:00:00 7.5 15 Sudeste 24 Sudeste 0 -- -- 96
2021-02-19 08:00:00 6.4 18 Sudeste 24 Sudeste 0 -- -- 95
2021-02-19 07:00:00 6.6 13 Sudeste 19 Sudeste 0 -- -- 92
2021-02-19 06:00:00 7.2 8 Sudeste 15 Sudeste 0 -- -- 90
2021-02-19 05:00:00 7.4 9 Sudeste 13 Sudeste 0 -- -- 90
2021-02-19 04:00:00 7.8 7 Sudeste 14 Sudeste 0 -- -- 87
2021-02-19 03:00:00 9 8 Sudeste 12 Sudeste 0 -- -- 83
2021-02-19 02:00:00 9.7 3 Sudeste 7 Sudeste 0 -- -- 77
2021-02-19 01:00:00 10.4 8 Sur 20 Sudoeste 0 -- -- 76
2021-02-19 00:00:00 11.8 11 Sudoeste 17 Sudoeste 0 -- -- 69
2021-02-18 23:00:00 10.4 9 Sudeste 12 Sudeste 0 -- -- 74
2021-02-18 22:00:00 11 8 Sudeste 12 Sudeste 0 -- -- 71
2021-02-18 21:00:00 12.2 6 Sur 10 Sudoeste 0 -- -- 64
2021-02-18 20:00:00 12.6 5 Sur 8 Sudoeste 0 -- -- 68
2021-02-18 19:00:00 14.2 4 Sur 13 Sudoeste 0 -- -- 64
2021-02-18 18:00:00 15.9 10 Sudoeste 18 Sudoeste 0 -- -- 57
2021-02-18 17:00:00 16.5 12 Sudoeste 26 Sudoeste 0 -- -- 49
2021-02-18 16:00:00 16.7 16 Sudoeste 29 Sudoeste 0 -- -- 46
2021-02-18 15:00:00 16.5 13 Sudoeste 24 Sudoeste 0 -- -- 55
2021-02-18 14:00:00 16 11 Sudoeste 19 Sudoeste 0 -- -- 60
2021-02-18 13:00:00 15.4 9 Sur 18 Sudeste 0 -- -- 67
2021-02-18 12:00:00 14.2 9 Sudeste 18 Sudeste 0 -- -- 81
2021-02-18 11:00:00 11.7 8 Sudeste 16 Este 0 -- -- 97
2021-02-18 10:00:00 9.5 9 Sudeste 14 Sudeste 0 -- -- 100
2021-02-18 09:00:00 8.6 2 Este 11 Sudeste 0 -- -- 100
2021-02-18 08:00:00 7.7 6 Sudeste 15 Sudeste 0 -- -- 99
2021-02-18 07:00:00 7.1 11 Sudeste 15 Sudeste 0 -- -- 98
2021-02-18 06:00:00 8.7 6 Sudeste 8 Sudeste 0 -- -- 95
2021-02-18 05:00:00 9.3 0 Calma 6 Noroeste 0 -- -- 94
2021-02-18 04:00:00 9.4 2 Noroeste 10 Oeste 0 -- -- 93
2021-02-18 03:00:00 10.8 8 Noroeste 29 Oeste 0 -- -- 87
2021-02-18 02:00:00 12.1 14 Sudoeste 25 Oeste 0 -- -- 81
2021-02-18 01:00:00 12.2 14 Sudoeste 25 Sudoeste 0 -- -- 79
2021-02-18 00:00:00 12.4 14 Sudoeste 22 Sudoeste 0 -- -- 83
2021-02-17 23:00:00 12.7 11 Sudoeste 17 Sudoeste 0 -- -- 81
2021-02-17 22:00:00 12.5 0 Calma 9 Sur 0 -- -- 76
2021-02-17 21:00:00 12.6 7 Sur 10 Sur 0 -- -- 74
2021-02-17 20:00:00 13.2 5 Sudeste 8 Sudeste 0 -- -- 70
2021-02-17 19:00:00 15.2 5 Sudeste 7 Sudeste 0 -- -- 66
2021-02-17 18:00:00 16.9 5 Sudeste 21 Sudeste 0 -- -- 58
2021-02-17 17:00:00 17.6 14 Sudeste 22 Este 0 -- -- 60
2021-02-17 16:00:00 17.8 13 Sudeste 19 Sudeste 0 -- -- 61
2021-02-17 15:00:00 17.9 13 Sudeste 23 Sudeste 0 -- -- 63
2021-02-17 14:00:00 16.9 12 Sudeste 23 Sudeste 0 -- -- 68
2021-02-17 13:00:00 15.3 15 Sudeste 25 Sudeste 0 -- -- 76
2021-02-17 12:00:00 14 17 Sudeste 24 Sudeste 0 -- -- 77
2021-02-17 11:00:00 12.5 16 Sudeste 22 Sudeste 0 -- -- 83
2021-02-17 10:00:00 9.9 15 Sudeste 21 Sudeste 0 -- -- 92
2021-02-17 09:00:00 7.7 13 Sudeste 17 Sudeste 0 -- -- 98
2021-02-17 08:00:00 7.1 12 Sudeste 16 Sudeste 0 -- -- 97
2021-02-17 07:00:00 7.6 11 Sudeste 14 Sudeste 0 -- -- 96
2021-02-17 06:00:00 8.3 7 Sudeste 8 Sudeste 0 -- -- 93
2021-02-17 05:00:00 9.3 2 Sudeste 6 Sudeste 0 -- -- 91
2021-02-17 04:00:00 9.7 4 Sudeste 6 Sudeste 0 -- -- 90
2021-02-17 03:00:00 10 2 Sudeste 5 Sur 0 -- -- 89
2021-02-17 02:00:00 10.7 3 Sudoeste 5 Sudoeste 0 -- -- 85
2021-02-17 01:00:00 10.7 0 Calma 11 Sudoeste 0 -- -- 85
2021-02-17 00:00:00 10.8 7 Sur 10 Sur 0 -- -- 83
2021-02-16 23:00:00 10.6 0 Calma 4 Oeste 0 -- -- 83
2021-02-16 22:00:00 10.4 0 Calma 4 Oeste 0 -- -- 83
2021-02-16 21:00:00 11.1 0 Calma 3 Nordeste 0 -- -- 80
2021-02-16 20:00:00 11.5 0 Calma 9 Oeste 0 -- -- 80
2021-02-16 19:00:00 13.3 6 Oeste 10 Sudoeste 0 -- -- 72
2021-02-16 18:00:00 15 6 Sudoeste 17 Sudoeste 0 -- -- 65
2021-02-16 17:00:00 15.9 10 Sudoeste 23 Sudoeste 0 -- -- 63
2021-02-16 16:00:00 16.4 13 Sudoeste 24 Sur 0 -- -- 57
2021-02-16 15:00:00 16.6 10 Oeste 26 Sudoeste 0 -- -- 56
2021-02-16 14:00:00 16.9 8 Sudeste 13 Sur 0 -- -- 59
2021-02-16 13:00:00 15.7 4 Sudeste 14 Sudeste 0 -- -- 59
2021-02-16 12:00:00 14.1 10 Sudeste 18 Sudeste 0 -- -- 64
2021-02-16 11:00:00 12.5 13 Sudeste 22 Sudeste 0 -- -- 69
2021-02-16 10:00:00 11.1 16 Sudeste 24 Sudeste 0 -- -- 71
2021-02-16 09:00:00 8.6 17 Sudeste 25 Sudeste 0 -- -- 80
2021-02-16 08:00:00 7.4 18 Sudeste 26 Sudeste 0 -- -- 85
2021-02-16 07:00:00 7.8 18 Sudeste 35 Sudeste 0 -- -- 86
2021-02-16 06:00:00 8 25 Sudeste 36 Sudeste 0 -- -- 88
2021-02-16 05:00:00 8.7 25 Sudeste 36 Sudeste 0 -- -- 85
2021-02-16 04:00:00 8.6 24 Sudeste 33 Sudeste 0 -- -- 83
2021-02-16 03:00:00 8.8 25 Sudeste 34 Sudeste 0 -- -- 85
2021-02-16 02:00:00 8.7 23 Sudeste 32 Sudeste 0 -- -- 86
2021-02-16 01:00:00 9.3 25 Sudeste 33 Sudeste 0 -- -- 84
2021-02-16 00:00:00 9.9 21 Sudeste 31 Sudeste 0 -- -- 83
2021-02-15 23:00:00 10.5 23 Sudeste 30 Sudeste 0 -- -- 82
2021-02-15 22:00:00 10.6 20 Sudeste 29 Sudeste 0 -- -- 83
2021-02-15 21:00:00 11.5 21 Sudeste 29 Sudeste 0 -- -- 80
2021-02-15 20:00:00 13 17 Sudeste 30 Sudeste 0 -- -- 72
2021-02-15 19:00:00 14.6 16 Sudeste 35 Sudeste 0 -- -- 65
2021-02-15 18:00:00 16.8 19 Sudeste 38 Este 0 -- -- 57
2021-02-15 17:00:00 17.5 25 Sudeste 41 Sudeste 0 -- -- 54
2021-02-15 16:00:00 17.5 20 Sudeste 38 Este 0 -- -- 57
2021-02-15 15:00:00 16.6 22 Sudeste 37 Sudeste 0 -- -- 60
2021-02-15 14:00:00 15.8 21 Sudeste 35 Sudeste 0 -- -- 63
2021-02-15 13:00:00 14.9 23 Sudeste 37 Sudeste 0 -- -- 65
2021-02-15 12:00:00 13.5 22 Sudeste 37 Sudeste 0 -- -- 70
2021-02-15 11:00:00 12.3 23 Sudeste 39 Sudeste 0 -- -- 72
2021-02-15 10:00:00 10.8 22 Sudeste 33 Sudeste 0 -- -- 76
2021-02-15 09:00:00 8.1 21 Sudeste 32 Sudeste 0 -- -- 84
2021-02-15 08:00:00 7.5 16 Sudeste 26 Sudeste 0 -- -- 85
2021-02-15 07:00:00 7.3 14 Sudeste 23 Sudeste 0 -- -- 86
2021-02-15 06:00:00 7.6 17 Sudeste 26 Sudeste 0 -- -- 86
2021-02-15 05:00:00 7.7 11 Sudeste 18 Sudeste 0 -- -- 86
2021-02-15 04:00:00 8.4 11 Sudeste 24 Sudeste 0 -- -- 83
2021-02-15 03:00:00 8.5 12 Sudeste 19 Sudeste 0 -- -- 84
2021-02-15 02:00:00 9.3 17 Sudeste 21 Sudeste 0 -- -- 83
2021-02-15 01:00:00 9.5 4 Sudeste 13 Sudeste 0 -- -- 82
2021-02-15 00:00:00 10.3 8 Sudeste 13 Sudeste 0 -- -- 79
2021-02-14 23:00:00 12.1 8 Sudeste 12 Sudeste 0 -- -- 71
2021-02-14 22:00:00 12.5 0 Calma 5 Oeste 0 -- -- 68
2021-02-14 21:00:00 13 3 Nordeste 7 Nordeste 0 -- -- 67
2021-02-14 20:00:00 13.6 6 Nordeste 9 Este 0 -- -- 68
2021-02-14 19:00:00 15.2 5 Este 15 Sudeste 0 -- -- 66
2021-02-14 18:00:00 17.3 9 Sudeste 27 Sudeste 0 -- -- 59
2021-02-14 17:00:00 17.5 21 Sudeste 30 Sudeste 0 -- -- 57
2021-02-14 16:00:00 17.4 20 Sudeste 32 Sudeste 0 -- -- 58
2021-02-14 15:00:00 17.3 19 Sudeste 30 Sudeste 0 -- -- 58
2021-02-14 14:00:00 16.7 17 Sudeste 31 Sudeste 0 -- -- 66
2021-02-14 13:00:00 15.4 21 Sudeste 34 Sudeste 0 -- -- 67
2021-02-14 12:00:00 14.2 22 Sudeste 36 Sudeste 0 -- -- 71
2021-02-14 11:00:00 12.8 23 Sudeste 34 Sudeste 0 -- -- 77
2021-02-14 10:00:00 10.7 18 Sudeste 27 Sudeste 0 -- -- 84
2021-02-14 09:00:00 8.6 19 Sudeste 26 Sudeste 0 -- -- 92
2021-02-14 08:00:00 7.2 18 Sudeste 24 Sudeste 0 -- -- 93
2021-02-14 07:00:00 7 14 Sudeste 19 Sudeste 0 -- -- 92
2021-02-14 06:00:00 6.8 9 Sudeste 14 Sudeste 0 -- -- 92
2021-02-14 05:00:00 7 9 Sudeste 14 Sudeste 0 -- -- 92
2021-02-14 04:00:00 8 10 Sudeste 13 Sudeste 0 -- -- 79
2021-02-14 03:00:00 8.9 10 Sudeste 13 Sudeste 0 -- -- 74
2021-02-14 02:00:00 9.8 9 Sudeste 12 Sudeste 0 -- -- 72
2021-02-14 01:00:00 9.6 6 Sudeste 9 Sudeste 0 -- -- 71
2021-02-14 00:00:00 10.3 0 Calma 5 Sudeste 0 -- -- 63
2021-02-13 23:00:00 10.1 5 Nordeste 6 Este 0 -- -- 68
2021-02-13 22:00:00 10 4 Norte 6 Oeste 0 -- -- 77
2021-02-13 21:00:00 10.9 4 Oeste 5 Oeste 0 -- -- 79
2021-02-13 20:00:00 11.8 4 Norte 9 Noroeste 0 -- -- 73
2021-02-13 19:00:00 13.6 5 Noroeste 11 Oeste 0 -- -- 63
2021-02-13 18:00:00 16.3 9 Oeste 13 Oeste 0 -- -- 51
2021-02-13 17:00:00 16.6 5 Noroeste 11 Oeste 0 -- -- 46
2021-02-13 16:00:00 16.1 6 Norte 15 Oeste 0 -- -- 50
2021-02-13 15:00:00 15.6 6 Noroeste 15 Oeste 0 -- -- 60
2021-02-13 14:00:00 14.8 6 Norte 13 Noroeste 0 -- -- 64
2021-02-13 13:00:00 13.6 4 Sudoeste 9 Sur 0 -- -- 68
2021-02-13 08:00:00 -- -- -- -- -- -- -- -- --
2021-02-13 07:00:00 7.6 0 Calma 2 Sudoeste 0 -- -- 95
2021-02-13 06:00:00 7.4 2 Oeste 8 Noroeste 0 -- -- 96
2021-02-13 05:00:00 7.1 6 Noroeste 8 Noroeste 0 -- -- 95
2021-02-13 04:00:00 8 2 Noroeste 5 Oeste 0 -- -- 93
2021-02-13 03:00:00 8.3 3 Oeste 6 Oeste 0 -- -- 91
2021-02-13 02:00:00 8.7 4 Oeste 6 Oeste 0 -- -- 88
2021-02-13 01:00:00 8.8 6 Noroeste 10 Oeste 0 -- -- 87
2021-02-13 00:00:00 9.4 7 Oeste 12 Oeste 0 -- -- 85
2021-02-12 23:00:00 9.5 5 Sudoeste 8 Sudoeste 0 -- -- 84
2021-02-12 22:00:00 9.4 5 Noroeste 10 Noroeste 0 -- -- 87
2021-02-12 21:00:00 10 5 Noroeste 11 Noroeste 0 -- -- 83
2021-02-12 20:00:00 10.9 0 Calma 8 Oeste 0 -- -- 81
2021-02-12 19:00:00 12.3 8 Noroeste 18 Oeste 0 -- -- 75
2021-02-12 18:00:00 14.8 12 Noroeste 23 Noroeste 0 -- -- 66
2021-02-12 17:00:00 15.2 14 Noroeste 26 Noroeste 0 -- -- 65
2021-02-12 16:00:00 15.2 15 Noroeste 27 Noroeste 0 -- -- 66
2021-02-12 15:00:00 14.2 14 Noroeste 30 Noroeste 0 -- -- 72
2021-02-12 14:00:00 14.4 17 Noroeste 31 Oeste 0 -- -- 72
2021-02-12 13:00:00 14 16 Oeste 28 Oeste 0 -- -- 78
2021-02-12 12:00:00 12.3 17 Oeste 29 Oeste 0 -- -- 83
2021-02-12 11:00:00 11.4 14 Oeste 30 Oeste 0 -- -- 89
2021-02-12 10:00:00 10 14 Oeste 25 Oeste 0 -- -- 98
2021-02-12 09:00:00 8.4 8 Oeste 14 Oeste 0.2 -- -- 100
2021-02-12 08:00:00 8.8 7 Oeste 21 Sudoeste 0 -- -- 99
2021-02-12 07:00:00 8.8 8 Noroeste 19 Oeste 0 -- -- 99
2021-02-12 06:00:00 9.7 12 Oeste 28 Oeste 0 -- -- 97
2021-02-12 05:00:00 11.3 15 Oeste 37 Oeste 1 -- -- 99
2021-02-12 04:00:00 11.9 18 Sudoeste 33 Oeste 0.4 -- -- 100
2021-02-12 03:00:00 11.9 15 Sudoeste 37 Sudoeste 1.2 -- -- 100
2021-02-12 02:00:00 11.9 18 Sudoeste 35 Sudoeste 0.2 -- -- 100
2021-02-12 01:00:00 12 12 Sudoeste 30 Sudoeste 0 -- -- 100
2021-02-12 00:00:00 12.1 13 Sudoeste 26 Sur 0.2 -- -- 100
2021-02-11 23:00:00 11.9 11 Sudoeste 24 Sur 0.4 -- -- 100
2021-02-11 22:00:00 12.1 8 Sudeste 14 Sur 0 -- -- 99
2021-02-11 21:00:00 12.2 6 Sur 12 Sudeste 0 -- -- 97
2021-02-11 20:00:00 12.6 12 Sur 21 Sur 0 -- -- 96
2021-02-11 19:00:00 12.7 11 Sur 17 Sur 0 -- -- 96
2021-02-11 18:00:00 12.9 9 Sur 24 Sudoeste 0 -- -- 96
2021-02-11 17:00:00 13.1 14 Sudoeste 22 Sudoeste 0 -- -- 96
2021-02-11 16:00:00 13 9 Sudoeste 15 Sudoeste 1 -- -- 98
2021-02-11 15:00:00 13.4 10 Sur 15 Sur 0 -- -- 97
2021-02-11 14:00:00 12.8 10 Sudoeste 18 Sudoeste 0 -- -- 99
2021-02-11 13:00:00 12.8 10 Sur 18 Sur 0.2 -- -- 100
2021-02-11 12:00:00 12.3 12 Sudeste 21 Sudeste 0 -- -- 100
2021-02-11 11:00:00 12.1 13 Sur 19 Sur 0 -- -- 100
2021-02-11 10:00:00 11.5 7 Sudoeste 18 Sudeste 0 -- -- 100
2021-02-11 09:00:00 11.2 10 Sur 17 Sur 0.2 -- -- 100
2021-02-11 08:00:00 11.1 10 Sudoeste 19 Sudoeste 0 -- -- 100
2021-02-11 07:00:00 11.3 6 Sudoeste 16 Sudoeste 0 -- -- 100
2021-02-11 06:00:00 11.5 10 Sudoeste 16 Sudoeste 0 -- -- 100
2021-02-11 05:00:00 11.8 8 Sudoeste 16 Oeste 0 -- -- 100
2021-02-11 04:00:00 12 10 Sudoeste 21 Sudoeste 0.2 -- -- 100
2021-02-11 03:00:00 12.1 7 Oeste 15 Sudoeste 0 -- -- 100
2021-02-11 02:00:00 11.9 5 Oeste 18 Sudoeste 0 -- -- 100
2021-02-11 01:00:00 11.5 3 Sudeste 9 Sudeste 0.6 -- -- 100
2021-02-11 00:00:00 11.9 5 Sudoeste 13 Sudoeste 0 -- -- 100
2021-02-10 23:00:00 11.5 5 Sur 9 Sudeste 0 -- -- 99
2021-02-10 22:00:00 11.5 4 Sur 6 Sur 0 -- -- 98
2021-02-10 21:00:00 11.5 0 Calma 14 Sudoeste 0 -- -- 98
2021-02-10 20:00:00 11.9 6 Oeste 13 Sudoeste 0 -- -- 92
2021-02-10 19:00:00 12.2 9 Oeste 20 Sudoeste 0 -- -- 85
2021-02-10 18:00:00 12.5 12 Sudoeste 25 Oeste 0 -- -- 82
2021-02-10 17:00:00 13.2 14 Oeste 23 Sudoeste 0 -- -- 76
2021-02-10 16:00:00 14 9 Oeste 24 Oeste 0 -- -- 67
2021-02-10 15:00:00 13.8 14 Oeste 30 Oeste 0 -- -- 65
2021-02-10 14:00:00 13.2 16 Oeste 35 Oeste 0 -- -- 66
2021-02-10 13:00:00 13.2 16 Oeste 31 Oeste 0 -- -- 69
2021-02-10 12:00:00 12.3 15 Oeste 31 Oeste 0 -- -- 74
2021-02-10 11:00:00 10.8 18 Oeste 30 Oeste 0 -- -- 85
2021-02-10 10:00:00 9.9 10 Oeste 22 Oeste 0 -- -- 98
2021-02-10 09:00:00 9.3 13 Oeste 27 Oeste 0.2 -- -- 97
2021-02-10 08:00:00 9.4 14 Oeste 23 Sudoeste 1 -- -- 99
2021-02-10 07:00:00 9.6 10 Oeste 32 Sudoeste 0.8 -- -- 98
2021-02-10 06:00:00 10 19 Oeste 45 Oeste 0.2 -- -- 95
2021-02-10 05:00:00 10.1 26 Oeste 47 Sudoeste 0 -- -- 91
2021-02-10 04:00:00 9.9 23 Oeste 52 Oeste 0 -- -- 94
2021-02-10 03:00:00 9.7 32 Sudoeste 55 Oeste 0 -- -- 95
2021-02-10 02:00:00 9.2 28 Sudoeste 53 Sudoeste 0 -- -- 97
2021-02-10 01:00:00 9.5 29 Sudoeste 58 Sudoeste 0 -- -- 93
2021-02-10 00:00:00 9.4 23 Sudoeste 43 Sudoeste 0 -- -- 97
2021-02-09 23:00:00 9.2 16 Sudoeste 33 Sudoeste 0 -- -- 98
2021-02-09 22:00:00 8.9 15 Sudoeste 50 Oeste 0 -- -- 94
2021-02-09 21:00:00 9.6 22 Sudoeste 45 Sudoeste 0 -- -- 89
2021-02-09 20:00:00 10.1 16 Oeste 45 Oeste 0 -- -- 93
2021-02-09 19:00:00 10.2 17 Sudoeste 45 Oeste 0 -- -- 93
2021-02-09 18:00:00 10.4 26 Sudoeste 47 Sudoeste 0 -- -- 89
2021-02-09 17:00:00 10.1 28 Sudoeste 49 Sudoeste 0 -- -- 94
2021-02-09 16:00:00 10.4 25 Sudoeste 46 Oeste 0.2 -- -- 96
2021-02-09 15:00:00 9.9 24 Oeste 56 Sudoeste 1.8 -- -- 96
2021-02-09 14:00:00 10.4 32 Sudoeste 62 Sudoeste 2.4 -- -- 97
2021-02-09 13:00:00 10.2 36 Sudoeste 62 Sudoeste 2.4 -- -- 99
2021-02-09 12:00:00 9.7 33 Sudoeste 58 Sudoeste 3.2 -- -- 99
2021-02-09 11:00:00 9.5 34 Sur 55 Sudoeste 1.2 -- -- 99
2021-02-09 10:00:00 9.1 32 Sudoeste 55 Sur 0.4 -- -- 99
2021-02-09 09:00:00 8.8 25 Sudoeste 49 Sudoeste 0.2 -- -- 99
2021-02-09 08:00:00 9 27 Sudoeste 45 Sudoeste 0.2 -- -- 94
2021-02-09 07:00:00 8.9 25 Sur 44 Sur 0 -- -- 98
2021-02-09 06:00:00 8.8 26 Sur 46 Sudoeste 0 -- -- 99
2021-02-09 05:00:00 8.9 23 Sudoeste 42 Sur 0 -- -- 100
2021-02-09 04:00:00 8.9 21 Sudoeste 41 Sudoeste 0.2 -- -- 100
2021-02-09 03:00:00 8.6 20 Sudoeste 35 Sudoeste 0 -- -- 100
2021-02-09 02:00:00 8.3 17 Sudoeste 36 Sudoeste 0 -- -- 98
2021-02-09 01:00:00 7.9 9 Sudoeste 27 Sudoeste 0 -- -- 95
2021-02-09 00:00:00 8.3 15 Sudoeste 36 Sudoeste 0 -- -- 91
2021-02-08 23:00:00 8.6 18 Sudoeste 33 Sudoeste 0 -- -- 91
2021-02-08 22:00:00 8.8 17 Oeste 30 Sudoeste 0 -- -- 88
2021-02-08 21:00:00 8.5 13 Oeste 27 Oeste 0 -- -- 86
2021-02-08 20:00:00 8.7 15 Oeste 30 Sudoeste 0 -- -- 87
2021-02-08 19:00:00 9.5 18 Oeste 37 Oeste 0 -- -- 81
2021-02-08 18:00:00 10.1 20 Oeste 38 Oeste 0 -- -- 81
2021-02-08 17:00:00 10.2 24 Oeste 46 Oeste 0.2 -- -- 87
2021-02-08 16:00:00 12.1 24 Oeste 44 Sudoeste 0 -- -- 74
2021-02-08 15:00:00 11.2 24 Oeste 49 Oeste 0.6 -- -- 77
2021-02-08 14:00:00 10.8 19 Oeste 45 Sudoeste 0 -- -- 87
2021-02-08 13:00:00 10.2 23 Oeste 45 Sudoeste 0 -- -- 87
2021-02-08 12:00:00 10.1 23 Oeste 42 Oeste 0 -- -- 89
2021-02-08 11:00:00 8.8 22 Oeste 40 Oeste 0 -- -- 96
2021-02-08 10:00:00 8.4 22 Sudoeste 39 Sudoeste 0 -- -- 96
2021-02-08 09:00:00 8.1 23 Oeste 40 Oeste 0 -- -- 97
2021-02-08 08:00:00 7.6 18 Oeste 31 Sudoeste 0 -- -- 98
2021-02-08 07:00:00 7.8 17 Oeste 31 Sudoeste 0 -- -- 98
2021-02-08 06:00:00 8.1 15 Oeste 32 Oeste 0 -- -- 97
2021-02-08 05:00:00 8.4 22 Oeste 42 Oeste 0.2 -- -- 97
2021-02-08 04:00:00 10 31 Sudoeste 57 Sudoeste 3.6 -- -- 100
2021-02-08 03:00:00 9.5 24 Sudoeste 42 Sur 4 -- -- 100
2021-02-08 02:00:00 8.7 22 Sur 39 Sur 1.4 -- -- 100
2021-02-08 01:00:00 8.4 22 Sur 38 Sur 1.2 -- -- 100
2021-02-08 00:00:00 8.2 21 Sur 33 Sur 1.2 -- -- 99
2021-02-07 23:00:00 8 22 Sur 38 Sur 0.2 -- -- 99
2021-02-07 22:00:00 7.9 12 Sur 29 Sur 0 -- -- 98
2021-02-07 21:00:00 7.9 13 Sudoeste 28 Sudoeste 0 -- -- 94
2021-02-07 20:00:00 7.9 11 Sudoeste 23 Sudoeste 0 -- -- 92
2021-02-07 19:00:00 7.9 13 Sudoeste 24 Oeste 0 -- -- 91
2021-02-07 18:00:00 8 15 Sudoeste 27 Oeste 0 -- -- 89
2021-02-07 17:00:00 8.4 15 Oeste 30 Oeste 0 -- -- 85
2021-02-07 16:00:00 9.6 18 Oeste 31 Oeste 0 -- -- 75
2021-02-07 15:00:00 9.7 18 Oeste 34 Oeste 0 -- -- 67
2021-02-07 14:00:00 9 14 Oeste 25 Sudoeste 0 -- -- 82
2021-02-07 13:00:00 7.9 17 Sudoeste 26 Sudoeste 0 -- -- 94
2021-02-07 12:00:00 7.2 13 Sudoeste 22 Sudoeste 0 -- -- 95
2021-02-07 11:00:00 7.2 11 Noroeste 17 Oeste 0 -- -- 95
2021-02-07 10:00:00 5.3 8 Noroeste 12 Noroeste 0 -- -- 100
2021-02-07 09:00:00 3.6 5 Noroeste 12 Noroeste 0.2 -- -- 100
2021-02-07 08:00:00 3.7 7 Noroeste 19 Noroeste 0 -- -- 100
2021-02-07 07:00:00 4.5 14 Noroeste 22 Noroeste 0 -- -- 100
2021-02-07 06:00:00 4.5 9 Noroeste 15 Noroeste 0 -- -- 100
2021-02-07 05:00:00 4.8 8 Noroeste 17 Noroeste 0 -- -- 100
2021-02-07 04:00:00 5.4 11 Noroeste 18 Noroeste 0 -- -- 100
2021-02-07 03:00:00 6 13 Noroeste 19 Noroeste 0 -- -- 100
2021-02-07 02:00:00 6.5 8 Noroeste 15 Noroeste 0 -- -- 100
2021-02-07 01:00:00 7 9 Noroeste 15 Noroeste 0 -- -- 100
2021-02-07 00:00:00 8 10 Noroeste 17 Noroeste 0 -- -- 99
2021-02-06 23:00:00 8.4 9 Noroeste 14 Oeste 0 -- -- 99
2021-02-06 22:00:00 8.3 5 Oeste 9 Oeste 0 -- -- 99
2021-02-06 21:00:00 8.2 4 Sudoeste 6 Sudoeste 0 -- -- 99
2021-02-06 20:00:00 8.3 5 Noroeste 8 Noroeste 0 -- -- 98
2021-02-06 19:00:00 8.9 5 Noroeste 12 Oeste 0 -- -- 96
2021-02-06 18:00:00 9.7 4 Oeste 15 Oeste 0 -- -- 94
2021-02-06 17:00:00 9.5 10 Sudoeste 18 Oeste 0 -- -- 93
2021-02-06 16:00:00 9.2 10 Oeste 18 Sudoeste 0.6 -- -- 98
2021-02-06 15:00:00 9.3 12 Oeste 19 Oeste 0.4 -- -- 94
2021-02-06 14:00:00 9.9 12 Oeste 22 Oeste 0 -- -- 92
2021-02-06 13:00:00 9.6 10 Oeste 20 Oeste 0 -- -- 99
2021-02-06 12:00:00 8.9 12 Oeste 21 Oeste 0 -- -- 100
2021-02-06 11:00:00 8.2 12 Oeste 22 Oeste 0 -- -- 100
2021-02-06 10:00:00 8.3 10 Sudoeste 22 Sudoeste 0.2 -- -- 100
2021-02-06 09:00:00 7.9 13 Sur 23 Sudoeste 0.2 -- -- 100
2021-02-06 08:00:00 7.7 14 Sur 24 Sur 0.4 -- -- 100
2021-02-06 07:00:00 7.7 14 Sur 25 Sur 0 -- -- 100
2021-02-06 06:00:00 8 12 Sudoeste 23 Sudoeste 0.4 -- -- 100
2021-02-06 05:00:00 8.4 10 Sur 19 Sur 0 -- -- 100
2021-02-06 04:00:00 8.4 4 Sur 12 Sudeste 0 -- -- 100
2021-02-06 03:00:00 8.6 7 Sudeste 16 Sudeste 0 -- -- 100
2021-02-06 02:00:00 8.8 10 Sudeste 20 Sur 0.2 -- -- 100
2021-02-06 01:00:00 8.8 11 Sur 22 Sur 0 -- -- 100
2021-02-06 00:00:00 9 13 Sur 23 Sur 0 -- -- 100
2021-02-05 23:00:00 8.8 10 Sudeste 23 Sur 0.6 -- -- 100
2021-02-05 22:00:00 8.7 11 Sudeste 23 Este 0.2 -- -- 100
2021-02-05 21:00:00 8.6 10 Sudeste 16 Este 1.8 -- -- 100
2021-02-05 20:00:00 8.7 8 Sudeste 14 Este 0.4 -- -- 99
2021-02-05 19:00:00 8.8 4 Sudeste 17 Este 1.4 -- -- 99
2021-02-05 18:00:00 8.9 9 Este 15 Este 3 -- -- 99
2021-02-05 17:00:00 9.7 6 Sur 9 Sur 0.4 -- -- 98
2021-02-05 16:00:00 9.8 2 Nordeste 10 Norte 0.4 -- -- 98
2021-02-05 15:00:00 9.6 4 Este 11 Norte 1.4 -- -- 98
2021-02-05 14:00:00 9.9 4 Sudoeste 13 Oeste 2.4 -- -- 98
2021-02-05 13:00:00 10.3 13 Oeste 22 Oeste 0.2 -- -- 93
2021-02-05 12:00:00 10.8 5 Oeste 10 Sur 0 -- -- 92
2021-02-05 11:00:00 10.4 4 Sur 12 Sudeste 0 -- -- 95
2021-02-05 10:00:00 10.2 3 Noroeste 17 Sudoeste 0 -- -- 96
2021-02-05 09:00:00 9.2 5 Nordeste 12 Nordeste 0.2 -- -- 100
2021-02-05 08:00:00 9 6 Noroeste 12 Noroeste 0.2 -- -- 100
2021-02-05 07:00:00 8.5 5 Noroeste 13 Oeste 0.8 -- -- 100
2021-02-05 06:00:00 9.2 4 Oeste 15 Sudeste 1 -- -- 100
2021-02-05 05:00:00 9.5 14 Sudeste 27 Sudeste 1.2 -- -- 100
2021-02-05 04:00:00 8.2 7 Oeste 14 Sudoeste 0.8 -- -- 100
2021-02-05 03:00:00 8.1 8 Noroeste 15 Oeste 0 -- -- 100
2021-02-05 02:00:00 8.1 7 Oeste 16 Sudoeste 0 -- -- 100
2021-02-05 01:00:00 8.1 5 Noroeste 10 Oeste 0 -- -- 100
2021-02-05 00:00:00 8.3 5 Noroeste 9 Noroeste 0 -- -- 100
2021-02-04 23:00:00 8.5 8 Nordeste 14 Nordeste 0 -- -- 100
2021-02-04 22:00:00 8.2 6 Norte 11 Norte 0 -- -- 100
2021-02-04 21:00:00 8.7 4 Norte 15 Noroeste 0 -- -- 100
2021-02-04 20:00:00 9.3 10 Noroeste 16 Oeste 0 -- -- 99
2021-02-04 19:00:00 9.3 5 Sudeste 23 Nordeste 0.2 -- -- 99
2021-02-04 18:00:00 9.6 16 Nordeste 25 Norte 0.4 -- -- 99
2021-02-04 17:00:00 9.9 8 Nordeste 17 Norte 0.6 -- -- 99
2021-02-04 16:00:00 9.8 9 Norte 22 Norte 1.6 -- -- 100
2021-02-04 15:00:00 9.7 6 Norte 18 Norte 0.2 -- -- 100
2021-02-04 14:00:00 9.4 7 Norte 22 Oeste 3 -- -- 100
2021-02-04 13:00:00 10.8 10 Sur 29 Sudeste 1.8 -- -- 100
2021-02-04 12:00:00 10.8 17 Sudeste 28 Este 0 -- -- 100
2021-02-04 11:00:00 10.1 17 Sudeste 28 Sudeste 0.2 -- -- 100
2021-02-04 10:00:00 9.5 15 Sudeste 26 Sudeste 1.2 -- -- 100
2021-02-04 09:00:00 9.1 12 Sudeste 18 Sudeste 1.2 -- -- 100
2021-02-04 08:00:00 8.9 11 Sudeste 19 Sudeste 0.4 -- -- 100
2021-02-04 07:00:00 8.9 11 Sudeste 17 Sudeste 0.4 -- -- 100
2021-02-04 06:00:00 8.8 7 Sudeste 17 Sudeste 0.4 -- -- 100
2021-02-04 05:00:00 8.9 11 Sudeste 16 Sudeste 0.4 -- -- 100
2021-02-04 04:00:00 9.3 11 Sudeste 22 Sudeste 0 -- -- 100
2021-02-04 03:00:00 9 14 Sudeste 21 Sudeste 0 -- -- 100
2021-02-04 02:00:00 9.2 10 Sudeste 17 Sudeste 0.2 -- -- 99
2021-02-04 01:00:00 9.6 6 Sur 12 Sur 0.2 -- -- 98
2021-02-04 00:00:00 10.1 5 Sudoeste 17 Sudoeste 0 -- -- 99